sensor_id;sensor_type;location;lat;lon;timestamp;temperature;humidity
12289;DHT22;6207;49.308;7.336;2023-04-05T00:02:09;-1.20;99.90
12289;DHT22;6207;49.308;7.336;2023-04-05T00:04:36;-1.10;99.90
12289;DHT22;6207;49.308;7.336;2023-04-05T00:07:04;-1.10;99.90
12289;DHT22;6207;49.308;7.336;2023-04-05T00:09:33;-1.10;99.90
12289;DHT22;6207;49.308;7.336;2023-04-05T00:12:00;-1.10;99.90
12289;DHT22;6207;49.308;7.336;2023-04-05T00:14:27;-1.10;99.90
12289;DHT22;6207;49.308;7.336;2023-04-05T00:16:53;-1.10;99.90
12289;DHT22;6207;49.308;7.336;2023-04-05T00:19:20;-1.20;99.90
12289;DHT22;6207;49.308;7.336;2023-04-05T00:21:49;-1.30;99.90
12289;DHT22;6207;49.308;7.336;2023-04-05T00:24:15;-1.30;99.90
12289;DHT22;6207;49.308;7.336;2023-04-05T00:26:42;-1.30;99.90
12289;DHT22;6207;49.308;7.336;2023-04-05T00:29:09;-1.30;99.90
12289;DHT22;6207;49.308;7.336;2023-04-05T00:31:36;-1.20;99.90
12289;DHT22;6207;49.308;7.336;2023-04-05T00:34:03;-1.30;99.90
12289;DHT22;6207;49.308;7.336;2023-04-05T00:36:31;-1.30;99.90
12289;DHT22;6207;49.308;7.336;2023-04-05T00:38:58;-1.30;99.90
12289;DHT22;6207;49.308;7.336;2023-04-05T00:41:24;-1.30;99.90
12289;DHT22;6207;49.308;7.336;2023-04-05T00:43:51;-1.30;99.90
12289;DHT22;6207;49.308;7.336;2023-04-05T00:46:18;-1.30;99.90
12289;DHT22;6207;49.308;7.336;2023-04-05T00:48:45;-1.30;99.90
12289;DHT22;6207;49.308;7.336;2023-04-05T00:51:12;-1.40;99.90
12289;DHT22;6207;49.308;7.336;2023-04-05T00:53:39;-1.50;99.90
12289;DHT22;6207;49.308;7.336;2023-04-05T00:56:07;-1.60;99.90
12289;DHT22;6207;49.308;7.336;2023-04-05T00:58:35;-1.60;99.90
12289;DHT22;6207;49.308;7.336;2023-04-05T01:01:18;-1.50;99.90
12289;DHT22;6207;49.308;7.336;2023-04-05T01:03:51;-1.60;99.90
12289;DHT22;6207;49.308;7.336;2023-04-05T01:09:04;-1.70;99.90
12289;DHT22;6207;49.308;7.336;2023-04-05T01:11:37;-1.90;99.90
12289;DHT22;6207;49.308;7.336;2023-04-05T01:14:04;-1.90;99.90
12289;DHT22;6207;49.308;7.336;2023-04-05T01:16:31;-2.00;99.90
12289;DHT22;6207;49.308;7.336;2023-04-05T01:18:58;-2.00;99.90
12289;DHT22;6207;49.308;7.336;2023-04-05T01:21:45;-2.00;99.90
12289;DHT22;6207;49.308;7.336;2023-04-05T01:30:38;-1.90;99.90
12289;DHT22;6207;49.308;7.336;2023-04-05T01:33:13;-2.00;99.90
12289;DHT22;6207;49.308;7.336;2023-04-05T01:38:32;-2.00;99.90
12289;DHT22;6207;49.308;7.336;2023-04-05T01:41:03;-2.10;99.90
12289;DHT22;6207;49.308;7.336;2023-04-05T01:43:29;-2.10;99.90
12289;DHT22;6207;49.308;7.336;2023-04-05T01:45:56;-2.10;99.90
12289;DHT22;6207;49.308;7.336;2023-04-05T01:48:23;-2.30;99.90
12289;DHT22;6207;49.308;7.336;2023-04-05T01:50:49;-2.20;99.90
12289;DHT22;6207;49.308;7.336;2023-04-05T01:53:16;-2.30;99.90
12289;DHT22;6207;49.308;7.336;2023-04-05T01:55:43;-2.20;99.90
12289;DHT22;6207;49.308;7.336;2023-04-05T01:58:09;-2.30;99.90
12289;DHT22;6207;49.308;7.336;2023-04-05T02:00:36;-2.30;99.90
12289;DHT22;6207;49.308;7.336;2023-04-05T02:03:03;-2.30;99.90
12289;DHT22;6207;49.308;7.336;2023-04-05T02:05:29;-2.30;99.90
12289;DHT22;6207;49.308;7.336;2023-04-05T02:07:56;-2.20;99.90
12289;DHT22;6207;49.308;7.336;2023-04-05T02:10:23;-2.20;99.90
12289;DHT22;6207;49.308;7.336;2023-04-05T02:12:50;-2.20;99.90
12289;DHT22;6207;49.308;7.336;2023-04-05T02:15:16;-2.10;99.90
12289;DHT22;6207;49.308;7.336;2023-04-05T02:17:43;-2.20;99.90
12289;DHT22;6207;49.308;7.336;2023-04-05T02:20:12;-2.30;99.90
12289;DHT22;6207;49.308;7.336;2023-04-05T02:22:40;-2.40;99.90
12289;DHT22;6207;49.308;7.336;2023-04-05T02:25:07;-2.40;99.90
12289;DHT22;6207;49.308;7.336;2023-04-05T02:27:35;-2.40;99.90
12289;DHT22;6207;49.308;7.336;2023-04-05T02:30:01;-2.50;99.90
12289;DHT22;6207;49.308;7.336;2023-04-05T02:32:28;-2.40;99.90
12289;DHT22;6207;49.308;7.336;2023-04-05T02:34:55;-2.30;99.90
12289;DHT22;6207;49.308;7.336;2023-04-05T02:37:22;-2.30;99.90
12289;DHT22;6207;49.308;7.336;2023-04-05T02:39:48;-2.30;99.90
12289;DHT22;6207;49.308;7.336;2023-04-05T02:42:15;-2.30;99.90
12289;DHT22;6207;49.308;7.336;2023-04-05T02:44:42;-2.40;99.90
12289;DHT22;6207;49.308;7.336;2023-04-05T02:47:08;-2.40;99.90
12289;DHT22;6207;49.308;7.336;2023-04-05T02:49:35;-2.00;99.90
12289;DHT22;6207;49.308;7.336;2023-04-05T02:52:02;-2.20;99.90
12289;DHT22;6207;49.308;7.336;2023-04-05T02:54:28;-2.30;99.90
12289;DHT22;6207;49.308;7.336;2023-04-05T02:56:55;-2.20;99.90
12289;DHT22;6207;49.308;7.336;2023-04-05T02:59:23;-2.30;99.90
12289;DHT22;6207;49.308;7.336;2023-04-05T03:01:50;-2.30;99.90
12289;DHT22;6207;49.308;7.336;2023-04-05T03:04:17;-2.20;99.90
12289;DHT22;6207;49.308;7.336;2023-04-05T03:06:44;-2.20;99.90
12289;DHT22;6207;49.308;7.336;2023-04-05T03:09:14;-2.10;99.90
12289;DHT22;6207;49.308;7.336;2023-04-05T03:11:40;-2.00;99.90
12289;DHT22;6207;49.308;7.336;2023-04-05T03:14:07;-2.10;99.90
12289;DHT22;6207;49.308;7.336;2023-04-05T03:16:34;-2.10;99.90
12289;DHT22;6207;49.308;7.336;2023-04-05T03:19:02;-2.10;99.90
12289;DHT22;6207;49.308;7.336;2023-04-05T03:21:31;-2.20;99.90
12289;DHT22;6207;49.308;7.336;2023-04-05T03:23:59;-2.20;99.90
12289;DHT22;6207;49.308;7.336;2023-04-05T03:26:26;-2.20;99.90
12289;DHT22;6207;49.308;7.336;2023-04-05T03:28:53;-2.30;99.90
12289;DHT22;6207;49.308;7.336;2023-04-05T03:31:20;-2.40;99.90
12289;DHT22;6207;49.308;7.336;2023-04-05T03:33:46;-2.40;99.90
12289;DHT22;6207;49.308;7.336;2023-04-05T03:36:13;-2.40;99.90
12289;DHT22;6207;49.308;7.336;2023-04-05T03:38:43;-2.40;99.90
12289;DHT22;6207;49.308;7.336;2023-04-05T03:41:11;-2.50;99.90
12289;DHT22;6207;49.308;7.336;2023-04-05T03:43:37;-2.50;99.90
12289;DHT22;6207;49.308;7.336;2023-04-05T03:46:04;-2.50;99.90
12289;DHT22;6207;49.308;7.336;2023-04-05T03:48:31;-2.70;99.90
12289;DHT22;6207;49.308;7.336;2023-04-05T03:50:58;-2.60;99.90
12289;DHT22;6207;49.308;7.336;2023-04-05T03:53:24;-2.60;99.90
12289;DHT22;6207;49.308;7.336;2023-04-05T03:55:51;-2.60;99.90
12289;DHT22;6207;49.308;7.336;2023-04-05T03:58:19;-2.60;99.90
12289;DHT22;6207;49.308;7.336;2023-04-05T04:00:46;-2.60;99.90
12289;DHT22;6207;49.308;7.336;2023-04-05T04:03:14;-2.50;99.90
12289;DHT22;6207;49.308;7.336;2023-04-05T04:05:41;-2.50;99.90
12289;DHT22;6207;49.308;7.336;2023-04-05T04:08:08;-2.70;99.90
12289;DHT22;6207;49.308;7.336;2023-04-05T04:10:35;-2.70;99.90
12289;DHT22;6207;49.308;7.336;2023-04-05T04:13:02;-2.40;99.90
12289;DHT22;6207;49.308;7.336;2023-04-05T04:15:28;-2.60;99.90
12289;DHT22;6207;49.308;7.336;2023-04-05T04:17:55;-2.70;99.90
12289;DHT22;6207;49.308;7.336;2023-04-05T04:20:22;-2.80;99.90
12289;DHT22;6207;49.308;7.336;2023-04-05T04:22:48;-2.80;99.90
12289;DHT22;6207;49.308;7.336;2023-04-05T04:25:15;-2.90;99.90
12289;DHT22;6207;49.308;7.336;2023-04-05T04:27:44;-2.90;99.90
12289;DHT22;6207;49.308;7.336;2023-04-05T04:30:13;-2.90;99.90
12289;DHT22;6207;49.308;7.336;2023-04-05T04:32:41;-2.90;99.90
12289;DHT22;6207;49.308;7.336;2023-04-05T04:35:22;-2.90;99.90
12289;DHT22;6207;49.308;7.336;2023-04-05T04:38:03;-2.80;99.90
12289;DHT22;6207;49.308;7.336;2023-04-05T04:40:40;-2.80;99.90
12289;DHT22;6207;49.308;7.336;2023-04-05T04:43:15;-2.80;99.90
12289;DHT22;6207;49.308;7.336;2023-04-05T04:45:52;-2.80;99.90
12289;DHT22;6207;49.308;7.336;2023-04-05T04:48:20;-2.80;99.90
12289;DHT22;6207;49.308;7.336;2023-04-05T04:50:47;-2.80;99.90
12289;DHT22;6207;49.308;7.336;2023-04-05T04:53:15;-3.00;99.90
12289;DHT22;6207;49.308;7.336;2023-04-05T04:55:47;-2.90;99.90
12289;DHT22;6207;49.308;7.336;2023-04-05T04:58:16;-2.80;99.90
12289;DHT22;6207;49.308;7.336;2023-04-05T05:00:43;-2.80;99.90
12289;DHT22;6207;49.308;7.336;2023-04-05T05:03:10;-2.90;99.90
12289;DHT22;6207;49.308;7.336;2023-04-05T05:05:45;-3.00;99.90
12289;DHT22;6207;49.308;7.336;2023-04-05T05:08:12;-2.80;99.90
12289;DHT22;6207;49.308;7.336;2023-04-05T05:10:39;-2.80;99.90
12289;DHT22;6207;49.308;7.336;2023-04-05T05:13:07;-2.80;99.90
12289;DHT22;6207;49.308;7.336;2023-04-05T05:15:33;-2.80;99.90
12289;DHT22;6207;49.308;7.336;2023-04-05T05:18:00;-2.80;99.90
12289;DHT22;6207;49.308;7.336;2023-04-05T05:20:27;-2.80;99.90
12289;DHT22;6207;49.308;7.336;2023-04-05T05:22:54;-2.70;99.90
12289;DHT22;6207;49.308;7.336;2023-04-05T05:25:21;-2.70;99.90
12289;DHT22;6207;49.308;7.336;2023-04-05T05:27:49;-2.40;99.90
12289;DHT22;6207;49.308;7.336;2023-04-05T05:30:17;-2.70;99.90
12289;DHT22;6207;49.308;7.336;2023-04-05T05:32:44;-2.70;99.90
12289;DHT22;6207;49.308;7.336;2023-04-05T05:35:11;-2.60;99.90
12289;DHT22;6207;49.308;7.336;2023-04-05T05:37:37;-2.60;99.90
12289;DHT22;6207;49.308;7.336;2023-04-05T05:40:05;-2.60;99.90
12289;DHT22;6207;49.308;7.336;2023-04-05T05:42:32;-2.50;99.90
12289;DHT22;6207;49.308;7.336;2023-04-05T05:45:03;-2.30;99.90
12289;DHT22;6207;49.308;7.336;2023-04-05T05:47:31;-2.30;99.90
12289;DHT22;6207;49.308;7.336;2023-04-05T05:49:58;-2.30;99.90
12289;DHT22;6207;49.308;7.336;2023-04-05T05:52:24;-2.20;99.90
12289;DHT22;6207;49.308;7.336;2023-04-05T05:54:51;-2.10;99.90
12289;DHT22;6207;49.308;7.336;2023-04-05T05:57:19;-2.10;99.90
12289;DHT22;6207;49.308;7.336;2023-04-05T05:59:45;-2.00;99.90
12289;DHT22;6207;49.308;7.336;2023-04-05T06:02:12;-1.90;99.90
12289;DHT22;6207;49.308;7.336;2023-04-05T06:04:39;-1.80;99.90
12289;DHT22;6207;49.308;7.336;2023-04-05T06:07:06;-1.70;99.90
12289;DHT22;6207;49.308;7.336;2023-04-05T06:09:32;-1.60;99.90
12289;DHT22;6207;49.308;7.336;2023-04-05T06:12:00;-1.50;99.90
12289;DHT22;6207;49.308;7.336;2023-04-05T06:14:27;-1.00;99.90
12289;DHT22;6207;49.308;7.336;2023-04-05T06:16:55;0.80;99.90
12289;DHT22;6207;49.308;7.336;2023-04-05T06:19:22;3.00;99.90
12289;DHT22;6207;49.308;7.336;2023-04-05T06:21:49;4.80;99.90
12289;DHT22;6207;49.308;7.336;2023-04-05T06:24:15;5.10;99.90
12289;DHT22;6207;49.308;7.336;2023-04-05T06:26:42;4.60;99.90
12289;DHT22;6207;49.308;7.336;2023-04-05T06:29:09;4.90;99.90
12289;DHT22;6207;49.308;7.336;2023-04-05T06:31:36;5.50;99.90
12289;DHT22;6207;49.308;7.336;2023-04-05T06:34:03;6.20;99.90
12289;DHT22;6207;49.308;7.336;2023-04-05T06:36:30;7.20;99.90
12289;DHT22;6207;49.308;7.336;2023-04-05T06:38:57;5.30;99.90
12289;DHT22;6207;49.308;7.336;2023-04-05T06:41:25;5.80;99.90
12289;DHT22;6207;49.308;7.336;2023-04-05T06:43:53;6.30;99.90
12289;DHT22;6207;49.308;7.336;2023-04-05T06:46:20;7.20;99.90
12289;DHT22;6207;49.308;7.336;2023-04-05T06:48:46;6.40;99.90
12289;DHT22;6207;49.308;7.336;2023-04-05T06:51:15;5.70;99.90
12289;DHT22;6207;49.308;7.336;2023-04-05T06:53:41;5.90;99.90
12289;DHT22;6207;49.308;7.336;2023-04-05T06:56:08;6.50;99.90
12289;DHT22;6207;49.308;7.336;2023-04-05T06:58:35;7.60;99.90
12289;DHT22;6207;49.308;7.336;2023-04-05T07:01:02;7.20;99.90
12289;DHT22;6207;49.308;7.336;2023-04-05T07:03:29;7.40;99.90
12289;DHT22;6207;49.308;7.336;2023-04-05T07:05:57;8.20;99.90
12289;DHT22;6207;49.308;7.336;2023-04-05T07:08:25;8.20;99.90
12289;DHT22;6207;49.308;7.336;2023-04-05T07:10:52;9.20;99.90
12289;DHT22;6207;49.308;7.336;2023-04-05T07:13:20;8.70;99.90
12289;DHT22;6207;49.308;7.336;2023-04-05T07:15:47;8.80;99.90
12289;DHT22;6207;49.308;7.336;2023-04-05T07:18:14;9.80;99.90
12289;DHT22;6207;49.308;7.336;2023-04-05T07:20:47;10.10;99.90
12289;DHT22;6207;49.308;7.336;2023-04-05T07:23:17;11.40;99.90
12289;DHT22;6207;49.308;7.336;2023-04-05T07:25:45;9.40;99.90
12289;DHT22;6207;49.308;7.336;2023-04-05T07:28:12;9.90;99.90
12289;DHT22;6207;49.308;7.336;2023-04-05T07:30:38;9.30;99.90
12289;DHT22;6207;49.308;7.336;2023-04-05T07:33:05;8.90;99.90
12289;DHT22;6207;49.308;7.336;2023-04-05T07:35:32;6.20;99.90
12289;DHT22;6207;49.308;7.336;2023-04-05T07:37:59;6.80;99.90
12289;DHT22;6207;49.308;7.336;2023-04-05T07:40:25;6.50;99.90
12289;DHT22;6207;49.308;7.336;2023-04-05T07:42:53;8.20;99.90
12289;DHT22;6207;49.308;7.336;2023-04-05T07:45:20;10.00;99.90
12289;DHT22;6207;49.308;7.336;2023-04-05T07:47:46;11.70;99.90
12289;DHT22;6207;49.308;7.336;2023-04-05T07:50:13;11.50;99.90
12289;DHT22;6207;49.308;7.336;2023-04-05T07:52:41;10.60;99.90
12289;DHT22;6207;49.308;7.336;2023-04-05T07:55:09;10.00;99.90
12289;DHT22;6207;49.308;7.336;2023-04-05T07:57:36;9.30;99.90
12289;DHT22;6207;49.308;7.336;2023-04-05T08:00:03;10.50;99.90
12289;DHT22;6207;49.308;7.336;2023-04-05T08:02:32;10.50;99.90
12289;DHT22;6207;49.308;7.336;2023-04-05T08:04:59;10.10;99.90
12289;DHT22;6207;49.308;7.336;2023-04-05T08:07:26;9.60;99.90
12289;DHT22;6207;49.308;7.336;2023-04-05T08:09:53;10.20;99.90
12289;DHT22;6207;49.308;7.336;2023-04-05T08:12:22;10.40;99.90
12289;DHT22;6207;49.308;7.336;2023-04-05T08:14:49;10.40;99.90
12289;DHT22;6207;49.308;7.336;2023-04-05T08:17:16;10.30;99.90
12289;DHT22;6207;49.308;7.336;2023-04-05T08:19:43;11.50;99.90
12289;DHT22;6207;49.308;7.336;2023-04-05T08:22:10;12.10;99.90
12289;DHT22;6207;49.308;7.336;2023-04-05T08:24:36;10.70;99.90
12289;DHT22;6207;49.308;7.336;2023-04-05T08:27:03;9.60;99.90
12289;DHT22;6207;49.308;7.336;2023-04-05T08:29:30;9.60;99.90
12289;DHT22;6207;49.308;7.336;2023-04-05T08:31:56;9.70;99.90
12289;DHT22;6207;49.308;7.336;2023-04-05T08:34:24;9.70;99.90
12289;DHT22;6207;49.308;7.336;2023-04-05T08:36:50;10.00;99.90
12289;DHT22;6207;49.308;7.336;2023-04-05T08:39:17;9.30;99.90
12289;DHT22;6207;49.308;7.336;2023-04-05T08:42:03;10.10;99.90
12289;DHT22;6207;49.308;7.336;2023-04-05T08:44:30;10.30;99.90
12289;DHT22;6207;49.308;7.336;2023-04-05T08:46:58;8.90;99.90
12289;DHT22;6207;49.308;7.336;2023-04-05T08:49:26;8.50;99.90
12289;DHT22;6207;49.308;7.336;2023-04-05T08:51:54;8.50;99.90
12289;DHT22;6207;49.308;7.336;2023-04-05T08:54:21;8.70;99.90
12289;DHT22;6207;49.308;7.336;2023-04-05T08:56:48;8.00;99.90
12289;DHT22;6207;49.308;7.336;2023-04-05T08:59:16;8.70;99.90
12289;DHT22;6207;49.308;7.336;2023-04-05T09:01:44;10.00;99.90
12289;DHT22;6207;49.308;7.336;2023-04-05T09:04:17;11.50;99.90
12289;DHT22;6207;49.308;7.336;2023-04-05T09:06:47;12.50;99.90
12289;DHT22;6207;49.308;7.336;2023-04-05T09:09:15;12.10;99.90
12289;DHT22;6207;49.308;7.336;2023-04-05T09:11:43;12.10;99.90
12289;DHT22;6207;49.308;7.336;2023-04-05T09:14:10;11.70;99.90
12289;DHT22;6207;49.308;7.336;2023-04-05T09:16:39;12.20;99.90
12289;DHT22;6207;49.308;7.336;2023-04-05T09:19:06;11.90;99.90
12289;DHT22;6207;49.308;7.336;2023-04-05T09:22:02;13.30;99.90
12289;DHT22;6207;49.308;7.336;2023-04-05T09:24:43;13.90;99.90
12289;DHT22;6207;49.308;7.336;2023-04-05T09:27:15;13.10;99.90
12289;DHT22;6207;49.308;7.336;2023-04-05T09:29:51;12.40;99.90
12289;DHT22;6207;49.308;7.336;2023-04-05T09:32:18;10.50;99.90
12289;DHT22;6207;49.308;7.336;2023-04-05T09:34:46;9.00;99.90
12289;DHT22;6207;49.308;7.336;2023-04-05T09:39:41;10.00;99.90
12289;DHT22;6207;49.308;7.336;2023-04-05T09:42:09;10.80;99.90
12289;DHT22;6207;49.308;7.336;2023-04-05T09:44:56;13.30;99.90
12289;DHT22;6207;49.308;7.336;2023-04-05T09:47:28;14.50;99.90
12289;DHT22;6207;49.308;7.336;2023-04-05T09:50:01;13.40;99.90
12289;DHT22;6207;49.308;7.336;2023-04-05T09:52:31;10.90;99.90
12289;DHT22;6207;49.308;7.336;2023-04-05T09:55:02;10.50;99.90
12289;DHT22;6207;49.308;7.336;2023-04-05T09:57:34;10.80;99.90
12289;DHT22;6207;49.308;7.336;2023-04-05T10:00:02;10.80;99.90
12289;DHT22;6207;49.308;7.336;2023-04-05T10:02:38;11.80;99.90
12289;DHT22;6207;49.308;7.336;2023-04-05T10:05:10;10.00;99.90
12289;DHT22;6207;49.308;7.336;2023-04-05T10:07:42;10.50;99.90
12289;DHT22;6207;49.308;7.336;2023-04-05T10:10:10;10.50;99.90
12289;DHT22;6207;49.308;7.336;2023-04-05T10:12:39;9.10;99.90
12289;DHT22;6207;49.308;7.336;2023-04-05T10:15:07;8.80;99.90
12289;DHT22;6207;49.308;7.336;2023-04-05T10:20:16;8.20;99.90
12289;DHT22;6207;49.308;7.336;2023-04-05T10:23:06;8.50;99.90
12289;DHT22;6207;49.308;7.336;2023-04-05T10:31:19;8.20;99.90
12289;DHT22;6207;49.308;7.336;2023-04-05T10:34:07;8.30;99.90
12289;DHT22;6207;49.308;7.336;2023-04-05T10:42:00;8.20;99.90
12289;DHT22;6207;49.308;7.336;2023-04-05T10:44:30;8.50;99.90
12289;DHT22;6207;49.308;7.336;2023-04-05T10:46:59;9.10;99.90
12289;DHT22;6207;49.308;7.336;2023-04-05T10:49:41;9.00;99.90
12289;DHT22;6207;49.308;7.336;2023-04-05T10:52:08;8.50;99.90
12289;DHT22;6207;49.308;7.336;2023-04-05T10:54:35;8.40;99.90
12289;DHT22;6207;49.308;7.336;2023-04-05T10:57:07;8.30;99.90
12289;DHT22;6207;49.308;7.336;2023-04-05T10:59:41;8.60;99.90
12289;DHT22;6207;49.308;7.336;2023-04-05T11:02:09;8.70;99.90
12289;DHT22;6207;49.308;7.336;2023-04-05T11:04:38;8.90;99.90
12289;DHT22;6207;49.308;7.336;2023-04-05T11:07:15;8.70;99.90
12289;DHT22;6207;49.308;7.336;2023-04-05T11:15:27;8.30;99.90
12289;DHT22;6207;49.308;7.336;2023-04-05T11:18:05;8.60;99.90
12289;DHT22;6207;49.308;7.336;2023-04-05T11:21:05;8.10;99.90
12289;DHT22;6207;49.308;7.336;2023-04-05T11:23:32;8.60;99.90
12289;DHT22;6207;49.308;7.336;2023-04-05T11:26:18;8.90;99.90
12289;DHT22;6207;49.308;7.336;2023-04-05T11:28:45;8.50;99.90
12289;DHT22;6207;49.308;7.336;2023-04-05T11:31:16;8.40;99.90
12289;DHT22;6207;49.308;7.336;2023-04-05T11:36:44;8.50;99.90
12289;DHT22;6207;49.308;7.336;2023-04-05T11:41:58;8.20;99.90
12289;DHT22;6207;49.308;7.336;2023-04-05T11:44:26;8.10;99.90
12289;DHT22;6207;49.308;7.336;2023-04-05T11:46:54;8.60;99.90
12289;DHT22;6207;49.308;7.336;2023-04-05T11:49:22;8.80;99.90
12289;DHT22;6207;49.308;7.336;2023-04-05T11:51:51;8.40;99.90
12289;DHT22;6207;49.308;7.336;2023-04-05T11:54:31;8.60;99.90
12289;DHT22;6207;49.308;7.336;2023-04-05T11:56:58;8.90;99.90
12289;DHT22;6207;49.308;7.336;2023-04-05T11:59:30;8.90;99.90
12289;DHT22;6207;49.308;7.336;2023-04-05T12:02:01;8.90;99.90
12289;DHT22;6207;49.308;7.336;2023-04-05T12:04:28;9.00;99.90
12289;DHT22;6207;49.308;7.336;2023-04-05T12:07:15;8.70;99.90
12289;DHT22;6207;49.308;7.336;2023-04-05T12:12:38;8.80;99.90
12289;DHT22;6207;49.308;7.336;2023-04-05T12:15:10;8.80;99.90
12289;DHT22;6207;49.308;7.336;2023-04-05T12:20:12;8.60;99.90
12289;DHT22;6207;49.308;7.336;2023-04-05T12:22:41;8.70;99.90
12289;DHT22;6207;49.308;7.336;2023-04-05T12:25:09;8.60;99.90
12289;DHT22;6207;49.308;7.336;2023-04-05T12:27:37;8.60;99.90
12289;DHT22;6207;49.308;7.336;2023-04-05T12:35:20;8.90;99.90
12289;DHT22;6207;49.308;7.336;2023-04-05T12:37:49;8.90;99.90
12289;DHT22;6207;49.308;7.336;2023-04-05T12:40:21;9.10;99.90
12289;DHT22;6207;49.308;7.336;2023-04-05T12:42:48;9.20;99.90
12289;DHT22;6207;49.308;7.336;2023-04-05T12:45:16;9.40;99.90
12289;DHT22;6207;49.308;7.336;2023-04-05T12:47:57;9.30;99.90
12289;DHT22;6207;49.308;7.336;2023-04-05T12:50:26;9.40;99.90
12289;DHT22;6207;49.308;7.336;2023-04-05T12:52:58;9.40;99.90
12289;DHT22;6207;49.308;7.336;2023-04-05T12:55:27;9.20;99.90
12289;DHT22;6207;49.308;7.336;2023-04-05T12:57:58;9.20;99.90
12289;DHT22;6207;49.308;7.336;2023-04-05T13:00:29;9.00;99.90
12289;DHT22;6207;49.308;7.336;2023-04-05T13:02:57;9.40;99.90
12289;DHT22;6207;49.308;7.336;2023-04-05T13:05:26;9.50;99.90
12289;DHT22;6207;49.308;7.336;2023-04-05T13:07:53;9.20;99.90
12289;DHT22;6207;49.308;7.336;2023-04-05T13:10:22;9.40;99.90
12289;DHT22;6207;49.308;7.336;2023-04-05T13:12:49;9.80;99.90
12289;DHT22;6207;49.308;7.336;2023-04-05T13:15:16;10.00;99.90
12289;DHT22;6207;49.308;7.336;2023-04-05T13:17:44;9.40;99.90
12289;DHT22;6207;49.308;7.336;2023-04-05T13:20:11;9.50;99.90
12289;DHT22;6207;49.308;7.336;2023-04-05T13:22:38;9.60;99.90
12289;DHT22;6207;49.308;7.336;2023-04-05T13:25:05;9.80;99.90
12289;DHT22;6207;49.308;7.336;2023-04-05T13:27:32;9.50;99.90
12289;DHT22;6207;49.308;7.336;2023-04-05T13:29:58;9.70;99.90
12289;DHT22;6207;49.308;7.336;2023-04-05T13:32:26;9.60;99.90
12289;DHT22;6207;49.308;7.336;2023-04-05T13:34:52;9.40;99.90
12289;DHT22;6207;49.308;7.336;2023-04-05T13:37:19;9.40;99.90
12289;DHT22;6207;49.308;7.336;2023-04-05T13:39:46;9.80;99.90
12289;DHT22;6207;49.308;7.336;2023-04-05T13:42:12;9.70;99.90
12289;DHT22;6207;49.308;7.336;2023-04-05T13:44:39;9.80;99.90
12289;DHT22;6207;49.308;7.336;2023-04-05T13:47:06;10.10;99.90
12289;DHT22;6207;49.308;7.336;2023-04-05T13:49:33;10.20;99.90
12289;DHT22;6207;49.308;7.336;2023-04-05T13:51:59;9.90;99.90
12289;DHT22;6207;49.308;7.336;2023-04-05T13:54:26;9.50;99.90
12289;DHT22;6207;49.308;7.336;2023-04-05T13:56:53;9.90;99.90
12289;DHT22;6207;49.308;7.336;2023-04-05T13:59:19;10.00;99.90
12289;DHT22;6207;49.308;7.336;2023-04-05T14:01:46;10.30;99.90
12289;DHT22;6207;49.308;7.336;2023-04-05T14:04:14;9.80;99.90
12289;DHT22;6207;49.308;7.336;2023-04-05T14:06:41;9.80;99.90
12289;DHT22;6207;49.308;7.336;2023-04-05T14:09:07;10.10;99.90
12289;DHT22;6207;49.308;7.336;2023-04-05T14:11:34;10.20;99.90
12289;DHT22;6207;49.308;7.336;2023-04-05T14:14:02;9.90;99.90
12289;DHT22;6207;49.308;7.336;2023-04-05T14:16:28;10.10;99.90
12289;DHT22;6207;49.308;7.336;2023-04-05T14:18:55;10.50;99.90
12289;DHT22;6207;49.308;7.336;2023-04-05T14:21:25;10.10;99.90
12289;DHT22;6207;49.308;7.336;2023-04-05T14:23:52;10.20;99.90
12289;DHT22;6207;49.308;7.336;2023-04-05T14:26:23;10.20;99.90
12289;DHT22;6207;49.308;7.336;2023-04-05T14:28:52;10.40;99.90
12289;DHT22;6207;49.308;7.336;2023-04-05T14:31:18;10.30;99.90
12289;DHT22;6207;49.308;7.336;2023-04-05T14:33:45;10.40;99.90
12289;DHT22;6207;49.308;7.336;2023-04-05T14:36:12;10.70;99.90
12289;DHT22;6207;49.308;7.336;2023-04-05T14:38:38;10.60;99.90
12289;DHT22;6207;49.308;7.336;2023-04-05T14:41:05;10.60;99.90
12289;DHT22;6207;49.308;7.336;2023-04-05T14:43:32;10.40;99.90
12289;DHT22;6207;49.308;7.336;2023-04-05T14:45:59;10.30;99.90
12289;DHT22;6207;49.308;7.336;2023-04-05T14:48:25;10.30;99.90
12289;DHT22;6207;49.308;7.336;2023-04-05T14:50:53;10.30;99.90
12289;DHT22;6207;49.308;7.336;2023-04-05T14:53:20;10.10;99.90
12289;DHT22;6207;49.308;7.336;2023-04-05T14:55:47;9.90;99.90
12289;DHT22;6207;49.308;7.336;2023-04-05T14:58:14;10.00;99.90
12289;DHT22;6207;49.308;7.336;2023-04-05T15:00:40;9.80;99.90
12289;DHT22;6207;49.308;7.336;2023-04-05T15:03:08;9.90;99.90
12289;DHT22;6207;49.308;7.336;2023-04-05T15:05:35;10.30;99.90
12289;DHT22;6207;49.308;7.336;2023-04-05T15:08:01;10.60;99.90
12289;DHT22;6207;49.308;7.336;2023-04-05T15:10:28;10.50;99.90
12289;DHT22;6207;49.308;7.336;2023-04-05T15:12:55;10.60;99.90
12289;DHT22;6207;49.308;7.336;2023-04-05T15:15:22;10.50;99.90
12289;DHT22;6207;49.308;7.336;2023-04-05T15:17:48;10.50;99.90
12289;DHT22;6207;49.308;7.336;2023-04-05T15:20:15;10.50;99.90
12289;DHT22;6207;49.308;7.336;2023-04-05T15:22:42;10.40;99.90
12289;DHT22;6207;49.308;7.336;2023-04-05T15:25:09;10.40;99.90
12289;DHT22;6207;49.308;7.336;2023-04-05T15:27:36;10.50;99.90
12289;DHT22;6207;49.308;7.336;2023-04-05T15:30:03;10.50;99.90
12289;DHT22;6207;49.308;7.336;2023-04-05T15:32:30;10.50;99.90
12289;DHT22;6207;49.308;7.336;2023-04-05T15:35:00;10.40;99.90
12289;DHT22;6207;49.308;7.336;2023-04-05T15:37:26;10.40;99.90
12289;DHT22;6207;49.308;7.336;2023-04-05T15:39:53;10.10;99.90
12289;DHT22;6207;49.308;7.336;2023-04-05T15:42:20;9.90;99.90
12289;DHT22;6207;49.308;7.336;2023-04-05T15:44:48;10.00;99.90
12289;DHT22;6207;49.308;7.336;2023-04-05T15:47:14;9.90;99.90
12289;DHT22;6207;49.308;7.336;2023-04-05T15:49:41;10.10;99.90
12289;DHT22;6207;49.308;7.336;2023-04-05T15:52:11;10.10;99.90
12289;DHT22;6207;49.308;7.336;2023-04-05T15:54:37;10.20;99.90
12289;DHT22;6207;49.308;7.336;2023-04-05T15:57:04;10.10;99.90
12289;DHT22;6207;49.308;7.336;2023-04-05T15:59:31;10.50;99.90
12289;DHT22;6207;49.308;7.336;2023-04-05T16:01:58;10.80;99.90
12289;DHT22;6207;49.308;7.336;2023-04-05T16:04:24;10.60;99.90
12289;DHT22;6207;49.308;7.336;2023-04-05T16:06:53;10.60;99.90
12289;DHT22;6207;49.308;7.336;2023-04-05T16:09:20;10.30;99.90
12289;DHT22;6207;49.308;7.336;2023-04-05T16:11:47;10.20;99.90
12289;DHT22;6207;49.308;7.336;2023-04-05T16:14:14;10.10;99.90
12289;DHT22;6207;49.308;7.336;2023-04-05T16:16:41;9.90;99.90
12289;DHT22;6207;49.308;7.336;2023-04-05T16:19:19;9.90;99.90
12289;DHT22;6207;49.308;7.336;2023-04-05T16:21:50;9.80;99.90
12289;DHT22;6207;49.308;7.336;2023-04-05T16:24:18;9.70;99.90
12289;DHT22;6207;49.308;7.336;2023-04-05T16:26:45;9.70;99.90
12289;DHT22;6207;49.308;7.336;2023-04-05T16:29:12;9.70;99.90
12289;DHT22;6207;49.308;7.336;2023-04-05T16:31:38;9.70;99.90
12289;DHT22;6207;49.308;7.336;2023-04-05T16:34:05;9.70;99.90
12289;DHT22;6207;49.308;7.336;2023-04-05T16:36:32;9.60;99.90
12289;DHT22;6207;49.308;7.336;2023-04-05T16:38:59;9.60;99.90
12289;DHT22;6207;49.308;7.336;2023-04-05T16:41:26;9.60;99.90
12289;DHT22;6207;49.308;7.336;2023-04-05T16:43:52;9.60;99.90
12289;DHT22;6207;49.308;7.336;2023-04-05T16:46:19;9.70;99.90
12289;DHT22;6207;49.308;7.336;2023-04-05T16:48:46;9.70;99.90
12289;DHT22;6207;49.308;7.336;2023-04-05T16:51:13;9.70;99.90